Time;durP1;ratioP1;P1;durP2;ratioP2;P2;SDS_P1;SDS_P2;PMS_P1;PMS_P2;Temp;Humidity;BMP_temperature;BMP_pressure;BME280_temperature;BME280_humidity;BME280_pressure;Samples;Min_cycle;Max_cycle;Signal;HPM_P1;HPM_P2
2022/08/11 00:02:43;;;;;;;3.05;2.05;;;16.80;98.70;;;;;;4348297;28;659128;-63
2022/08/11 00:05:30;;;;;;;5.77;1.80;;;16.80;98.40;;;;;;4354830;28;658426;-63
2022/08/11 00:08:21;;;;;;;6.87;2.17;;;16.90;98.10;;;;;;4373745;28;657683;-62
2022/08/11 00:11:10;;;;;;;3.70;2.30;;;16.90;98.10;;;;;;4342256;28;658335;-62
2022/08/11 00:13:57;;;;;;;7.60;2.10;;;16.90;98.10;;;;;;4348958;28;658131;-62
2022/08/11 00:16:52;;;;;;;7.47;2.33;;;16.90;98.10;;;;;;4377405;28;658013;-62
2022/08/11 00:19:42;;;;;;;4.60;2.27;;;16.90;98.20;;;;;;4350635;28;658258;-62
2022/08/11 00:22:29;;;;;;;4.93;2.47;;;16.90;98.20;;;;;;4353295;28;657573;-63
2022/08/11 00:25:17;;;;;;;7.10;2.87;;;16.80;98.40;;;;;;4352098;28;657718;-62
2022/08/11 00:28:05;;;;;;;3.07;2.37;;;16.80;98.80;;;;;;4366306;28;657872;-63
2022/08/11 00:30:52;;;;;;;3.50;2.10;;;16.80;98.70;;;;;;4345833;28;658216;-62
2022/08/11 00:33:40;;;;;;;3.20;2.37;;;16.80;98.50;;;;;;4369742;28;657250;-62
2022/08/11 00:36:29;;;;;;;7.03;2.33;;;16.80;98.80;;;;;;4349033;28;657754;-63
2022/08/11 00:39:17;;;;;;;5.63;2.27;;;16.70;98.90;;;;;;4350621;28;658107;-62
2022/08/11 00:42:10;;;;;;;4.07;2.47;;;16.70;98.90;;;;;;4378042;28;657088;-62
2022/08/11 00:45:03;;;;;;;3.57;2.40;;;16.60;99.20;;;;;;4318908;28;658007;-62
2022/08/11 00:47:57;;;;;;;6.80;2.10;;;16.60;99.60;;;;;;4329999;28;658403;-62
2022/08/11 00:50:46;;;;;;;3.70;2.13;;;16.50;99.50;;;;;;4351327;28;657885;-63
2022/08/11 00:53:44;;;;;;;4.23;2.33;;;16.40;99.90;;;;;;4345608;28;658258;-62
2022/08/11 00:56:59;;;;;;;4.77;2.43;;;16.10;99.90;;;;;;4330625;28;658740;-62
2022/08/11 01:00:11;;;;;;;8.43;2.37;;;16.00;99.90;;;;;;4350045;28;657556;-62
2022/08/11 01:03:11;;;;;;;6.60;2.67;;;15.80;99.90;;;;;;4347394;28;658297;-62
2022/08/11 01:06:34;;;;;;;4.93;2.30;;;15.70;99.90;;;;;;4346113;28;657577;-63
2022/08/11 01:09:31;;;;;;;6.10;2.37;;;15.50;99.90;;;;;;4326033;28;658268;-62
2022/08/11 01:12:29;;;;;;;5.30;1.90;;;15.40;99.90;;;;;;4347581;28;657599;-63
2022/08/11 01:15:48;;;;;;;3.17;2.20;;;15.10;99.90;;;;;;4326399;28;658604;-62
2022/08/11 01:19:12;;;;;;;4.00;2.40;;;14.80;99.90;;;;;;4329951;28;657460;-62
2022/08/11 01:22:36;;;;;;;4.17;2.30;;;14.70;99.90;;;;;;4335090;28;657648;-63
2022/08/11 01:25:49;;;;;;;3.40;2.23;;;14.50;99.90;;;;;;4330419;28;657762;-62
2022/08/11 01:28:58;;;;;;;4.73;2.43;;;14.40;99.90;;;;;;4326086;28;659471;-62
2022/08/11 01:32:15;;;;;;;4.97;2.27;;;14.20;99.90;;;;;;4332030;28;657909;-63
2022/08/11 01:35:25;;;;;;;5.23;2.50;;;14.00;99.90;;;;;;4325310;28;657676;-62
2022/08/11 01:38:56;;;;;;;6.30;2.37;;;13.70;99.90;;;;;;4346143;28;657704;-62
2022/08/11 01:45:21;;;;;;;5.63;2.57;;;13.40;99.90;;;;;;4352892;28;658079;-63
2022/08/11 01:48:14;;;;;;;3.97;2.30;;;13.30;99.90;;;;;;4341718;28;658282;-62
2022/08/11 01:51:08;;;;;;;4.03;2.27;;;13.20;99.90;;;;;;4346409;28;657604;-62
2022/08/11 01:54:00;;;;;;;7.40;2.63;;;13.10;99.90;;;;;;4324319;28;657932;-62
2022/08/11 01:56:55;;;;;;;3.83;2.40;;;13.10;99.90;;;;;;4341169;28;658865;-62
2022/08/11 01:59:48;;;;;;;4.27;2.27;;;13.00;99.90;;;;;;4327955;28;658303;-62
2022/08/11 02:02:46;;;;;;;4.20;2.30;;;13.00;99.90;;;;;;4330474;28;659284;-63
2022/08/11 02:05:47;;;;;;;5.53;2.77;;;12.90;99.90;;;;;;4339846;28;657637;-62
2022/08/11 02:08:41;;;;;;;4.67;2.60;;;12.90;99.90;;;;;;4351915;28;657650;-62
2022/08/11 02:11:30;;;;;;;7.53;2.80;;;12.90;99.90;;;;;;4345938;28;657733;-62
2022/08/11 02:14:22;;;;;;;6.40;2.80;;;12.80;99.90;;;;;;4352175;28;658967;-62
2022/08/11 02:17:13;;;;;;;5.07;2.90;;;12.70;99.90;;;;;;4349078;28;657669;-63
2022/08/11 02:26:24;;;;;;;6.03;2.67;;;12.50;99.90;;;;;;4331177;28;658019;-61
2022/08/11 02:29:15;;;;;;;7.10;2.73;;;12.40;99.90;;;;;;4347029;28;657239;-62
2022/08/11 02:35:15;;;;;;;4.67;2.80;;;12.30;99.90;;;;;;4344490;28;658743;-62
2022/08/11 02:38:10;;;;;;;5.13;2.53;;;12.10;99.90;;;;;;4337225;28;658234;-62
2022/08/11 02:41:01;;;;;;;6.20;2.80;;;11.90;99.90;;;;;;4343549;28;658148;-62
2022/08/11 02:43:57;;;;;;;5.13;3.00;;;11.90;99.90;;;;;;4347669;28;658071;-64
2022/08/11 02:46:51;;;;;;;5.47;3.00;;;11.90;99.90;;;;;;4339270;28;658561;-62
2022/08/11 02:49:55;;;;;;;9.60;2.83;;;11.90;99.90;;;;;;4356631;28;658238;-62
2022/08/11 02:52:58;;;;;;;6.85;3.03;;;11.90;99.90;;;;;;4349648;28;657394;-63
2022/08/11 02:55:52;;;;;;;5.23;3.13;;;12.00;99.90;;;;;;4328316;28;657232;-63
2022/08/11 02:59:48;;;;;;;5.70;2.73;;;12.00;99.90;;;;;;4342217;28;657408;-62
2022/08/11 03:01:58;;;;;;;7.17;2.63;;;12.10;99.90;;;;;;4339495;28;658549;-62
2022/08/11 03:04:52;;;;;;;5.90;2.80;;;12.00;99.90;;;;;;4327618;28;657988;-63
2022/08/11 03:07:43;;;;;;;5.73;2.83;;;12.10;99.90;;;;;;4338447;28;658613;-61
2022/08/11 03:10:34;;;;;;;8.43;3.13;;;12.10;99.90;;;;;;4325842;28;657244;-62
2022/08/11 03:16:47;;;;;;;6.03;3.43;;;12.20;99.90;;;;;;4320417;28;658512;-62
2022/08/11 03:19:40;;;;;;;6.77;3.10;;;12.50;99.90;;;;;;4338291;28;658804;-62
2022/08/11 03:22:32;;;;;;;9.73;3.63;;;12.60;99.90;;;;;;4315427;28;658482;-63
2022/08/11 03:25:30;;;;;;;6.87;3.53;;;12.60;99.90;;;;;;4332246;28;658350;-64
2022/08/11 03:28:26;;;;;;;4.97;3.27;;;12.70;99.90;;;;;;4313182;28;657673;-62
2022/08/11 03:31:24;;;;;;;7.07;3.20;;;12.70;99.90;;;;;;4339861;28;657898;-62
2022/08/11 03:34:15;;;;;;;9.73;3.53;;;12.70;99.90;;;;;;4339959;28;657437;-64
2022/08/11 03:37:47;;;;;;;8.50;3.60;;;12.50;99.90;;;;;;4339986;28;657546;-62
2022/08/11 03:44:04;;;;;;;5.20;2.90;;;12.50;99.90;;;;;;4293406;28;657996;-62
2022/08/11 03:47:00;;;;;;;9.20;3.57;;;12.50;99.90;;;;;;4318495;28;658072;-62
2022/08/11 03:50:00;;;;;;;7.17;3.07;;;12.50;99.90;;;;;;4315737;28;657934;-62
2022/08/11 03:52:51;;;;;;;7.50;3.37;;;12.50;99.90;;;;;;4318846;28;657886;-62
2022/08/11 03:55:57;;;;;;;4.53;3.00;;;12.50;99.90;;;;;;4327237;28;657637;-62
2022/08/11 03:59:06;;;;;;;9.50;2.87;;;12.40;99.90;;;;;;4339536;28;657761;-62
2022/08/11 04:02:18;;;;;;;3.80;2.80;;;12.40;99.90;;;;;;4341184;28;657469;-62
2022/08/11 04:05:32;;;;;;;6.27;2.87;;;12.20;99.90;;;;;;4334020;28;657829;-63
2022/08/11 04:08:56;;;;;;;7.57;3.27;;;12.30;99.90;;;;;;4349084;28;657696;-62
2022/08/11 04:11:56;;;;;;;5.13;2.90;;;12.30;99.90;;;;;;4345728;28;657766;-62
2022/08/11 04:18:34;;;;;;;5.97;3.10;;;12.40;99.90;;;;;;4351875;28;657722;-62
2022/08/11 04:21:26;;;;;;;4.27;2.70;;;12.40;99.90;;;;;;4326435;28;658882;-62
2022/08/11 04:24:49;;;;;;;6.30;3.27;;;12.50;99.90;;;;;;4340875;28;658624;-62
2022/08/11 04:27:53;;;;;;;7.47;3.00;;;12.50;99.90;;;;;;4300960;28;657073;-62
2022/08/11 04:30:51;;;;;;;4.73;3.00;;;12.60;99.90;;;;;;4329396;28;658080;-64
2022/08/11 04:34:14;;;;;;;4.10;2.60;;;12.50;99.90;;;;;;4349944;28;657733;-62
2022/08/11 04:37:56;;;;;;;5.60;2.80;;;12.60;99.90;;;;;;4351217;28;657093;-62
2022/08/11 04:41:13;;;;;;;9.47;2.90;;;12.70;99.90;;;;;;4291549;28;657715;-62
2022/08/11 04:44:23;;;;;;;5.43;3.30;;;12.90;99.90;;;;;;4326974;28;657913;-62
2022/08/11 05:01:39;;;;;;;3.40;2.53;;;13.10;99.90;;;;;;4352124;28;657630;-64
2022/08/11 05:03:43;;;;;;;8.90;2.70;;;13.60;99.90;;;;;;4348579;28;657529;-62
2022/08/11 05:06:55;;;;;;;7.23;2.90;;;13.80;99.90;;;;;;4340519;28;657639;-63
2022/08/11 05:09:59;;;;;;;5.23;2.77;;;14.00;99.90;;;;;;4358327;28;658234;-62
2022/08/11 05:12:49;;;;;;;6.27;2.70;;;14.20;99.90;;;;;;4329481;28;658884;-62
2022/08/11 05:37:34;;;;;;;3.97;2.67;;;15.30;99.90;;;;;;4324254;28;659256;-62
2022/08/11 05:56:18;;;;;;;7.43;2.63;;;17.00;99.90;;;;;;4340716;28;658292;-62
2022/08/11 05:59:06;;;;;;;5.97;2.90;;;17.10;99.90;;;;;;4332490;28;657709;-63
2022/08/11 06:02:00;;;;;;;7.33;2.23;;;17.40;99.90;;;;;;4371539;28;657596;-62
2022/08/11 06:04:47;;;;;;;11.13;3.10;;;17.60;99.90;;;;;;4318385;28;658535;-62
2022/08/11 06:07:34;;;;;;;6.10;2.60;;;17.80;99.90;;;;;;4364153;28;659020;-63
2022/08/11 06:10:26;;;;;;;5.33;2.50;;;17.90;99.90;;;;;;4339311;28;657096;-62
2022/08/11 06:13:15;;;;;;;3.87;2.00;;;18.10;99.90;;;;;;4342959;28;658246;-63
2022/08/11 06:16:04;;;;;;;3.73;2.20;;;18.30;99.90;;;;;;4347902;28;658317;-62
2022/08/11 06:18:51;;;;;;;2.53;2.00;;;18.60;99.90;;;;;;4358378;28;657971;-62
2022/08/11 06:21:38;;;;;;;4.20;1.93;;;18.80;99.90;;;;;;4361358;28;659368;-62
2022/08/11 06:24:25;;;;;;;3.90;2.10;;;18.90;99.90;;;;;;4356830;28;657530;-64
2022/08/11 06:27:13;;;;;;;4.63;1.90;;;19.20;99.90;;;;;;4363574;28;658597;-63
2022/08/11 06:30:00;;;;;;;3.10;1.70;;;19.40;99.90;;;;;;4352354;28;657827;-63
2022/08/11 06:32:54;;;;;;;5.97;1.70;;;19.60;99.90;;;;;;4372162;28;657490;-62
2022/08/11 06:35:51;;;;;;;6.83;1.77;;;19.70;99.90;;;;;;4318648;28;658240;-63
2022/08/11 06:38:46;;;;;;;1.83;1.60;;;20.00;99.90;;;;;;4345930;28;658449;-62
2022/08/11 06:41:36;;;;;;;4.53;1.60;;;20.20;99.90;;;;;;4338247;28;658176;-63
2022/08/11 06:44:28;;;;;;;2.00;1.50;;;20.40;99.90;;;;;;4342703;28;658103;-63
2022/08/11 06:47:16;;;;;;;2.80;1.63;;;20.60;99.90;;;;;;4315243;28;657310;-63
2022/08/11 06:53:11;;;;;;;2.20;1.43;;;21.00;97.30;;;;;;4344158;28;657662;-64
2022/08/11 07:02:09;;;;;;;6.33;1.77;;;21.40;94.10;;;;;;4327140;28;657565;-63
2022/08/11 07:04:59;;;;;;;3.23;1.70;;;21.50;92.90;;;;;;4362799;28;657576;-63
2022/08/11 07:30:27;;;;;;;6.70;2.00;;;21.70;96.50;;;;;;4334495;28;658365;-63
2022/08/11 07:33:14;;;;;;;5.70;1.90;;;21.60;96.10;;;;;;4366116;28;657741;-63
2022/08/11 07:36:01;;;;;;;4.03;1.70;;;22.10;94.30;;;;;;4339240;28;657777;-63
2022/08/11 07:38:50;;;;;;;6.43;1.70;;;22.50;93.90;;;;;;4358550;28;657770;-62
2022/08/11 07:41:38;;;;;;;3.70;1.53;;;23.00;90.00;;;;;;4340560;28;658936;-63
2022/08/11 07:44:28;;;;;;;3.13;1.63;;;23.40;85.90;;;;;;4350885;28;657623;-64
2022/08/11 07:53:25;;;;;;;3.70;1.50;;;23.50;80.70;;;;;;4342006;28;657577;-64
2022/08/11 07:56:15;;;;;;;3.00;1.40;;;23.90;78.40;;;;;;4369075;28;659058;-63
2022/08/11 08:17:52;;;;;;;5.17;1.50;;;22.80;74.60;;;;;;4354319;28;657963;-63
2022/08/11 08:20:40;;;;;;;3.40;1.63;;;22.50;75.10;;;;;;4351383;28;658255;-63
2022/08/11 08:23:32;;;;;;;3.07;1.50;;;22.50;76.00;;;;;;4351084;28;658475;-63
2022/08/11 08:32:31;;;;;;;2.65;1.67;;;22.70;73.70;;;;;;4354095;28;658396;-63
2022/08/11 08:35:18;;;;;;;4.77;1.30;;;22.70;76.80;;;;;;4352907;28;657643;-63
2022/08/11 08:38:05;;;;;;;2.30;1.50;;;23.60;71.90;;;;;;4361752;28;658265;-64
2022/08/11 08:40:53;;;;;;;1.87;1.50;;;24.30;70.80;;;;;;4370203;28;658375;-63
2022/08/11 08:43:40;;;;;;;4.23;1.30;;;24.20;68.50;;;;;;4365390;28;658061;-65
2022/08/11 08:46:30;;;;;;;3.60;1.67;;;23.90;70.10;;;;;;4374997;28;658026;-63
2022/08/11 08:49:21;;;;;;;3.40;1.40;;;23.50;71.70;;;;;;4338160;28;658918;-63
2022/08/11 08:52:08;;;;;;;5.23;1.50;;;23.20;71.90;;;;;;4344265;28;658329;-63
2022/08/11 08:54:56;;;;;;;7.23;1.80;;;23.30;71.60;;;;;;4365220;28;658604;-63
2022/08/11 08:57:44;;;;;;;2.47;1.57;;;24.30;73.40;;;;;;4382038;28;657881;-63
2022/08/11 09:00:40;;;;;;;1.50;1.40;;;24.80;69.20;;;;;;4348696;28;658378;-63
2022/08/11 09:03:27;;;;;;;3.80;1.40;;;25.00;67.60;;;;;;4329659;28;658489;-63
2022/08/11 09:06:16;;;;;;;3.20;1.30;;;25.20;65.00;;;;;;4377898;28;657310;-63
2022/08/11 09:09:03;;;;;;;3.77;1.30;;;24.60;63.90;;;;;;4350224;28;658433;-63
2022/08/11 09:11:52;;;;;;;3.63;1.50;;;24.10;65.00;;;;;;4356825;28;657439;-64
2022/08/11 09:17:47;;;;;;;3.57;1.67;;;23.70;67.50;;;;;;4342509;28;657843;-64
2022/08/11 09:20:35;;;;;;;4.23;1.70;;;23.80;68.50;;;;;;4359418;28;657764;-65
2022/08/11 09:29:33;;;;;;;2.50;1.50;;;24.50;70.60;;;;;;4340435;28;658585;-63
2022/08/11 09:32:20;;;;;;;3.95;1.63;;;25.90;68.00;;;;;;4344856;28;657474;-65
2022/08/11 09:35:08;;;;;;;2.65;1.50;;;26.90;64.70;;;;;;4365651;28;658672;-64
2022/08/11 09:41:02;;;;;;;2.10;1.38;;;27.60;57.50;;;;;;4322559;28;658117;-64
2022/08/11 09:46:54;;;;;;;6.35;2.60;;;26.60;56.90;;;;;;4349127;28;658745;-64
2022/08/11 09:49:41;;;;;;;5.25;2.38;;;25.70;58.10;;;;;;4353571;28;657833;-64
2022/08/11 09:52:29;;;;;;;4.00;1.65;;;25.20;58.60;;;;;;4368659;28;658012;-63
2022/08/11 09:55:16;;;;;;;3.65;1.48;;;24.80;59.80;;;;;;4346953;28;658482;-63
2022/08/11 09:58:12;;;;;;;3.40;1.60;;;24.70;59.90;;;;;;4372310;28;657818;-63
2022/08/11 10:01:00;;;;;;;3.37;1.50;;;24.60;60.10;;;;;;4359169;28;657490;-65
2022/08/11 10:03:47;;;;;;;5.63;1.53;;;24.00;60.00;;;;;;4365347;28;658874;-63
2022/08/11 10:09:43;;;;;;;2.47;1.33;;;24.00;61.80;;;;;;4333094;28;657762;-64
2022/08/11 10:12:33;;;;;;;2.50;1.40;;;24.00;62.20;;;;;;4356193;28;657383;-64
2022/08/11 10:15:34;;;;;;;3.83;1.10;;;23.80;60.30;;;;;;4352040;28;658624;-64
2022/08/11 10:18:51;;;;;;;8.17;1.73;;;23.90;62.00;;;;;;4353443;28;658235;-64
2022/08/11 10:21:40;;;;;;;5.67;1.63;;;24.10;61.60;;;;;;4333083;28;659360;-63
2022/08/11 10:27:32;;;;;;;3.57;1.70;;;24.90;58.70;;;;;;4319195;28;657869;-63
2022/08/11 10:36:31;;;;;;;3.83;1.37;;;24.40;59.50;;;;;;4362699;28;657543;-65
2022/08/11 10:39:19;;;;;;;3.20;1.40;;;24.50;59.40;;;;;;4359482;28;658496;-63
2022/08/11 10:48:12;;;;;;;2.03;1.10;;;24.90;56.80;;;;;;4320581;28;657843;-63
2022/08/11 10:51:13;;;;;;;1.93;1.20;;;24.70;57.10;;;;;;4364683;28;657495;-63
2022/08/11 11:00:13;;;;;;;2.53;1.15;;;26.20;56.10;;;;;;4326146;28;657789;-64
2022/08/11 11:03:01;;;;;;;2.50;1.13;;;27.10;53.50;;;;;;4298949;28;657951;-64
2022/08/11 11:05:48;;;;;;;2.92;1.10;;;27.20;52.90;;;;;;4348297;28;658444;-64
2022/08/11 11:08:54;;;;;;;6.95;1.10;;;27.10;52.00;;;;;;4334843;28;657819;-64
2022/08/11 11:18:00;;;;;;;1.42;0.90;;;28.10;51.00;;;;;;4317792;28;658378;-64
2022/08/11 11:20:48;;;;;;;5.63;1.10;;;28.20;49.70;;;;;;4321568;28;658621;-63
2022/08/11 11:23:40;;;;;;;3.05;1.00;;;28.20;49.50;;;;;;4344537;28;657621;-64
2022/08/11 11:26:37;;;;;;;4.88;0.80;;;28.40;48.30;;;;;;4344017;28;657829;-64
2022/08/11 11:29:53;;;;;;;1.35;0.73;;;28.70;47.20;;;;;;4340744;28;657771;-65
2022/08/11 11:32:44;;;;;;;2.90;0.90;;;27.90;47.50;;;;;;4321764;28;657713;-65
2022/08/11 11:35:43;;;;;;;2.78;0.70;;;27.30;48.30;;;;;;4346442;28;657664;-64
2022/08/11 11:38:30;;;;;;;2.67;0.75;;;26.60;49.90;;;;;;4321637;28;658072;-64
2022/08/11 11:41:25;;;;;;;1.45;1.00;;;25.70;50.20;;;;;;4366365;28;658414;-63
2022/08/11 11:44:12;;;;;;;0.63;0.63;;;25.80;51.10;;;;;;4342292;28;658614;-63
2022/08/11 11:46:59;;;;;;;3.42;0.90;;;25.70;51.60;;;;;;4364713;28;657879;-63
2022/08/11 11:49:47;;;;;;;2.13;0.80;;;25.90;51.30;;;;;;4344548;28;657818;-63
2022/08/11 11:52:34;;;;;;;3.08;0.95;;;26.20;51.80;;;;;;4364237;28;657274;-64
2022/08/11 11:55:22;;;;;;;3.30;0.85;;;26.70;52.40;;;;;;4339668;28;658570;-64
2022/08/11 12:01:18;;;;;;;1.75;1.00;;;28.30;51.60;;;;;;4320435;28;658037;-65
2022/08/11 12:04:05;;;;;;;3.60;1.08;;;28.00;49.30;;;;;;4348747;28;657775;-64
2022/08/11 12:08:08;;;;;;;3.63;1.10;;;27.80;50.70;;;;;;4370246;28;658535;-65
2022/08/11 12:10:00;;;;;;;2.05;1.00;;;27.60;51.00;;;;;;4333497;28;657952;-65
2022/08/11 12:15:55;;;;;;;1.50;0.80;;;26.40;50.90;;;;;;4340615;28;658696;-63
2022/08/11 12:18:43;;;;;;;1.40;1.05;;;25.30;51.70;;;;;;4344314;28;658563;-63
2022/08/11 12:21:30;;;;;;;2.70;1.08;;;24.60;53.60;;;;;;4358763;28;657435;-63
2022/08/11 12:27:24;;;;;;;7.13;1.05;;;24.10;54.60;;;;;;4348297;28;657855;-62
2022/08/11 12:30:12;;;;;;;6.10;1.00;;;24.00;55.10;;;;;;4357451;28;658359;-62
2022/08/11 12:33:01;;;;;;;2.67;1.10;;;24.00;55.50;;;;;;4391173;28;657886;-62
2022/08/11 12:35:52;;;;;;;1.97;1.10;;;25.30;57.00;;;;;;4360849;28;658553;-63
2022/08/11 12:38:39;;;;;;;1.45;0.80;;;26.10;52.20;;;;;;4361217;28;658514;-62
2022/08/11 12:51:55;;;;;;;1.88;0.77;;;26.90;53.40;;;;;;4325953;28;659478;-62
2022/08/11 12:53:53;;;;;;;3.42;1.10;;;26.20;52.50;;;;;;4356465;28;657993;-62
2022/08/11 13:05:58;;;;;;;2.13;0.90;;;24.30;54.70;;;;;;4332524;28;658047;-62
2022/08/11 13:08:46;;;;;;;1.88;0.88;;;24.40;58.00;;;;;;4363473;28;657566;-62
2022/08/11 13:14:38;;;;;;;4.22;1.00;;;24.80;55.00;;;;;;4353181;28;658494;-62
2022/08/11 13:17:26;;;;;;;2.97;0.80;;;25.20;55.60;;;;;;4364354;28;658662;-63
2022/08/11 13:20:13;;;;;;;3.05;0.98;;;25.40;55.40;;;;;;4375067;28;658491;-62
2022/08/11 13:23:02;;;;;;;3.38;1.15;;;25.30;55.60;;;;;;4354116;28;658334;-63
2022/08/11 13:25:49;;;;;;;13.07;1.20;;;25.30;57.10;;;;;;4375879;28;659802;-62
2022/08/11 13:28:36;;;;;;;5.47;1.40;;;24.10;57.50;;;;;;4356070;28;658931;-62
2022/08/11 13:31:23;;;;;;;9.83;1.30;;;22.90;60.60;;;;;;4376678;28;658631;-62
2022/08/11 13:34:10;;;;;;;6.90;1.30;;;21.70;64.70;;;;;;4354765;28;658101;-63
2022/08/11 13:36:59;;;;;;;11.53;1.70;;;20.80;72.20;;;;;;4380382;28;659061;-61
2022/08/11 13:39:47;;;;;;;8.47;1.30;;;20.20;82.80;;;;;;4355068;28;658667;-62
2022/08/11 13:42:34;;;;;;;4.00;1.63;;;19.50;97.00;;;;;;4376004;28;657839;-61
2022/08/11 13:45:22;;;;;;;10.37;1.63;;;18.70;99.90;;;;;;4348475;28;657536;-62
2022/08/11 13:48:11;;;;;;;5.27;1.67;;;18.20;99.90;;;;;;4361958;28;660669;-63
2022/08/11 13:54:04;;;;;;;3.83;1.40;;;17.50;99.90;;;;;;4323406;28;657885;-62
2022/08/11 13:56:54;;;;;;;1.73;1.40;;;17.20;99.90;;;;;;4343324;28;657953;-63
2022/08/11 13:59:42;;;;;;;2.27;1.10;;;17.10;99.90;;;;;;4348817;28;658005;-63
2022/08/11 14:02:29;;;;;;;4.80;1.50;;;16.90;99.90;;;;;;4365001;28;657817;-62
2022/08/11 14:05:17;;;;;;;6.40;1.60;;;16.60;99.90;;;;;;4346840;28;657667;-62
2022/08/11 14:08:17;;;;;;;3.27;1.57;;;16.50;99.90;;;;;;4377754;28;657365;-62
2022/08/11 14:14:10;;;;;;;7.47;1.97;;;16.30;99.90;;;;;;4347827;28;658235;-62
2022/08/11 14:16:57;;;;;;;8.67;1.90;;;16.20;99.90;;;;;;4346857;28;657856;-62
2022/08/11 14:19:44;;;;;;;7.53;1.70;;;16.20;99.90;;;;;;4368136;28;657743;-63
2022/08/11 14:22:31;;;;;;;6.73;1.60;;;16.20;99.90;;;;;;4348974;28;659040;-63
2022/08/11 14:25:19;;;;;;;9.87;1.77;;;16.00;99.90;;;;;;4372780;28;657906;-63
2022/08/11 14:28:06;;;;;;;4.63;1.47;;;15.80;99.90;;;;;;4347053;28;657211;-63
2022/08/11 14:30:55;;;;;;;5.57;1.63;;;15.40;99.90;;;;;;4367866;28;658825;-63
2022/08/11 14:33:42;;;;;;;6.97;1.40;;;15.40;99.90;;;;;;4342126;28;658473;-64
2022/08/11 14:36:31;;;;;;;3.13;1.40;;;15.40;99.90;;;;;;4369015;28;657570;-63
2022/08/11 14:39:19;;;;;;;3.80;1.40;;;15.40;99.90;;;;;;4328373;28;657262;-62
2022/08/11 14:48:24;;;;;;;1.73;1.47;;;15.90;99.90;;;;;;4316252;28;657821;-62
2022/08/11 14:51:11;;;;;;;6.70;1.43;;;15.90;99.90;;;;;;4345969;28;657395;-62
2022/08/11 14:56:34;;;;;;;1.83;1.30;;;16.40;99.90;;;;;;4357777;28;659825;-64
2022/08/11 14:57:06;;;;;;;1.97;1.43;;;16.50;1.00;;;;;;4342101;28;658381;-63
2022/08/11 14:59:53;;;;;;;3.50;1.40;;;16.80;99.90;;;;;;4365963;28;656953;-63
2022/08/11 15:05:48;;;;;;;5.03;1.60;;;17.30;99.90;;;;;;4356147;28;657456;-64
2022/08/11 15:08:55;;;;;;;3.27;1.40;;;16.90;99.90;;;;;;4340901;28;657521;-64
2022/08/11 15:17:58;;;;;;;2.80;1.60;;;17.80;99.90;;;;;;4318544;28;658713;-63
2022/08/11 15:39:19;;;;;;;9.37;1.57;;;24.30;99.90;;;;;;4353922;28;658472;-63
2022/08/11 15:48:39;;;;;;;3.03;1.60;;;29.30;87.20;;;;;;4352170;28;658600;-63
2022/08/11 15:51:33;;;;;;;6.43;1.43;;;30.40;72.10;;;;;;4357625;28;657732;-63
2022/08/11 15:54:23;;;;;;;1.58;1.05;;;29.70;67.50;;;;;;4337033;28;657881;-64
2022/08/11 16:04:09;;;;;;;3.05;1.10;;;28.10;74.80;;;;;;4353643;28;657856;-64
2022/08/11 16:06:30;;;;;;;2.25;1.10;;;24.40;99.90;;;;;;4348200;28;657781;-64
2022/08/11 16:09:23;;;;;;;2.88;1.02;;;24.50;99.90;;;;;;4337165;28;657802;-64
2022/08/11 16:12:12;;;;;;;4.68;1.40;;;25.50;99.90;;;;;;4319403;28;658073;-65
2022/08/11 16:18:06;;;;;;;2.75;1.10;;;27.80;87.30;;;;;;4318614;28;657472;-64
2022/08/11 16:20:54;;;;;;;2.50;0.98;;;29.00;76.20;;;;;;4364621;28;658362;-63
2022/08/11 16:23:44;;;;;;;5.60;1.10;;;29.80;62.10;;;;;;4344799;28;658126;-64
2022/08/11 16:26:31;;;;;;;2.80;1.08;;;31.20;56.90;;;;;;4349896;28;657440;-64
2022/08/11 16:29:18;;;;;;;1.42;0.90;;;31.40;53.40;;;;;;4362247;28;657556;-63
2022/08/11 16:32:19;;;;;;;1.60;1.00;;;31.50;51.40;;;;;;4341533;28;657729;-64
2022/08/11 16:46:58;;;;;;;1.15;1.08;;;30.80;50.30;;;;;;4321071;28;658368;-64
2022/08/11 16:47:31;;;;;;;3.95;1.10;;;30.70;49.70;;;;;;4322208;28;658815;-64
2022/08/11 16:50:19;;;;;;;4.72;3.42;;;31.60;47.10;;;;;;4362378;28;658118;-63
2022/08/11 16:53:06;;;;;;;11.70;6.55;;;31.80;45.30;;;;;;4347964;28;657439;-63
2022/08/11 16:55:54;;;;;;;7.15;4.70;;;30.10;48.30;;;;;;4365224;28;659018;-63
2022/08/11 17:01:51;;;;;;;4.72;1.75;;;29.50;51.20;;;;;;4326313;28;658212;-63
2022/08/11 17:13:59;;;;;;;3.33;2.38;;;28.30;53.00;;;;;;4356512;28;658493;-70
2022/08/11 17:16:47;;;;;;;3.55;1.88;;;27.00;55.00;;;;;;4351547;28;658262;-69
2022/08/11 17:19:35;;;;;;;7.10;1.30;;;25.40;62.70;;;;;;4369626;28;657456;-69
2022/08/11 17:25:28;;;;;;;3.87;1.67;;;22.90;91.80;;;;;;4320739;28;659118;-69
2022/08/11 17:28:15;;;;;;;3.90;1.50;;;21.80;99.90;;;;;;4350896;28;658480;-70
2022/08/11 17:37:13;;;;;;;5.10;1.40;;;20.10;99.90;;;;;;4345771;28;657811;-70
2022/08/11 17:40:01;;;;;;;3.63;1.47;;;19.50;99.90;;;;;;4345416;28;657662;-69
2022/08/11 17:48:59;;;;;;;8.10;1.70;;;18.40;99.90;;;;;;4342762;28;658477;-69
2022/08/11 18:01:03;;;;;;;2.13;1.60;;;17.40;99.90;;;;;;4350295;28;658138;-67
2022/08/11 18:03:50;;;;;;;8.53;1.67;;;17.50;99.90;;;;;;4355615;28;657954;-68
2022/08/11 18:06:40;;;;;;;3.30;1.87;;;17.20;99.90;;;;;;4342101;28;659163;-68
